Time;durP1;ratioP1;P1;durP2;ratioP2;P2;SDS_P1;SDS_P2;PMS_P1;PMS_P2;Temp;Humidity;BMP_temperature;BMP_pressure;BME280_temperature;BME280_humidity;BME280_pressure;Samples;Min_cycle;Max_cycle;Signal;HPM_P1;HPM_P2
2021/01/10 00:03:58;;;;;;;;;;;-2.20;99.90;;;-3.30;83.04;96088.22;10615871;27;1567;-81
2021/01/10 00:08:59;;;;;;;;;;;-2.10;99.90;;;-3.85;85.45;96094.59;10627089;27;2277;-83
2021/01/10 00:14:03;;;;;;;;;;;-2.50;99.90;;;-3.85;86.12;96096.41;10601764;27;2288;-82
2021/01/10 00:19:05;;;;;;;;;;;-2.60;99.90;;;-4.05;87.12;96092.63;10628140;27;2210;-83
2021/01/10 00:24:07;;;;;;;;;;;-2.90;99.90;;;-4.29;88.61;96086.53;10606279;27;2120;-82
2021/01/10 00:29:09;;;;;;;;;;;-3.00;99.90;;;-4.38;88.87;96091.03;10617762;27;2317;-81
2021/01/10 00:34:11;;;;;;;;;;;-3.20;99.90;;;-4.38;89.38;96093.66;10624224;27;2261;-80
2021/01/10 00:39:13;;;;;;;;;;;-3.20;99.90;;;-4.32;89.57;96091.34;10621198;27;2273;-81
2021/01/10 00:44:14;;;;;;;;;;;-3.20;99.90;;;-4.28;89.83;96092.59;10621276;27;1931;-80
2021/01/10 00:49:16;;;;;;;;;;;-3.20;99.90;;;-4.33;90.24;96087.03;10629690;27;1959;-81
2021/01/10 00:54:19;;;;;;;;;;;-3.00;99.90;;;-4.50;90.07;96087.16;10636613;27;2349;-81
2021/01/10 00:59:21;;;;;;;;;;;-3.30;99.90;;;-4.51;90.35;96084.72;10645825;27;1883;-82
2021/01/10 01:04:22;;;;;;;;;;;-3.40;99.90;;;-4.55;90.67;96084.22;10666573;27;2411;-82
2021/01/10 01:09:24;;;;;;;;;;;-3.40;99.90;;;-4.61;91.20;96087.53;10654314;27;1889;-82
2021/01/10 01:14:26;;;;;;;;;;;-1.90;99.90;;;-4.65;91.26;96080.97;10618123;27;2273;-83
2021/01/10 01:19:28;;;;;;;;;;;-3.50;99.90;;;-4.80;90.97;96087.94;10626987;27;1881;-80
2021/01/10 01:24:30;;;;;;;;;;;-3.60;99.90;;;-4.84;91.63;96091.88;10622432;27;2213;-82
2021/01/10 01:29:32;;;;;;;;;;;-2.70;99.90;;;-4.93;91.82;96091.94;10605472;28;2351;-82
2021/01/10 01:34:35;;;;;;;;;;;;;;;-5.06;91.44;96094.28;10620949;27;2249;-82
2021/01/10 01:39:36;;;;;;;;;;;-3.80;99.90;;;-4.97;92.62;96098.47;10625209;27;2325;-81
2021/01/10 01:44:38;;;;;;;;;;;-2.50;99.90;;;-5.02;92.06;96100.00;10619003;27;2330;-82
2021/01/10 01:49:40;;;;;;;;;;;-3.90;99.90;;;-5.07;92.23;96108.38;10622848;27;2237;-84
2021/01/10 01:54:42;;;;;;;;;;;-3.90;99.90;;;-5.15;92.13;96116.25;10626584;27;1991;-81
2021/01/10 01:59:44;;;;;;;;;;;-4.00;99.90;;;-5.23;91.56;96118.88;10644533;27;2081;-81
2021/01/10 02:04:46;;;;;;;;;;;-4.10;99.90;;;-5.35;91.85;96114.97;10624387;27;2273;-81
2021/01/10 02:09:47;;;;;;;;;;;-4.10;99.90;;;-5.42;92.87;96114.81;10630111;27;2227;-80
2021/01/10 02:14:50;;;;;;;;;;;-4.20;99.90;;;-5.40;91.55;96106.81;10668020;27;2307;-82
2021/01/10 02:19:52;;;;;;;;;;;-4.30;99.90;;;-5.46;92.40;96103.88;10665089;27;1895;-82
2021/01/10 02:24:54;;;;;;;;;;;-4.30;99.90;;;-5.46;91.45;96114.34;10648709;27;2234;-81
2021/01/10 02:29:56;;;;;;;;;;;-4.30;99.90;;;-5.51;91.21;96111.41;10642583;27;2159;-83
2021/01/10 02:34:57;;;;;;;;;;;-4.40;99.90;;;-5.56;91.79;96118.09;10656744;27;2350;-82
2021/01/10 02:40:04;;;;;;;;;;;-4.40;99.90;;;-5.71;91.77;96117.97;10620321;27;1912;-82
2021/01/10 02:45:06;;;;;;;;;;;-3.00;99.90;;;-5.85;92.94;96118.59;10638851;27;2331;-81
2021/01/10 02:50:08;;;;;;;;;;;-4.60;99.90;;;-5.83;93.01;96116.66;10639069;27;1965;-81
2021/01/10 02:55:10;;;;;;;;;;;-4.60;99.90;;;-5.77;91.98;96116.81;10651062;27;1844;-81
2021/01/10 03:00:12;;;;;;;;;;;-4.60;99.90;;;-5.83;92.42;96112.22;10632047;27;2281;-81
2021/01/10 03:05:14;;;;;;;;;;;-4.60;99.90;;;-5.81;92.59;96123.34;10631746;27;2451;-80
2021/01/10 03:10:16;;;;;;;;;;;-4.60;99.90;;;-5.99;92.76;96120.91;10621415;27;1910;-81
2021/01/10 03:15:18;;;;;;;;;;;-4.80;99.90;;;-6.15;92.03;96112.25;10624429;27;2397;-81
2021/01/10 03:20:19;;;;;;;;;;;-4.90;99.90;;;-6.17;93.24;96115.03;10617643;27;1967;-82
2021/01/10 03:25:25;;;;;;;;;;;-5.00;99.90;;;-6.16;92.96;96110.63;10621088;27;2429;-82
2021/01/10 03:30:29;;;;;;;;;;;-5.00;99.90;;;-6.16;92.67;96108.81;10611623;27;2453;-82
2021/01/10 03:35:41;;;;;;;;;;;-5.00;99.90;;;-6.15;93.22;96105.22;10605645;27;2337;-80
2021/01/10 03:40:43;;;;;;;;;;;-5.00;99.90;;;-6.22;93.39;96101.59;10607522;27;2472;-83
2021/01/10 03:45:45;;;;;;;;;;;-4.80;99.90;;;-6.18;93.63;96102.91;10599504;27;2406;-83
2021/01/10 03:50:47;;;;;;;;;;;-5.00;99.90;;;-6.05;93.12;96100.63;10615870;27;2380;-81
2021/01/10 03:55:49;;;;;;;;;;;-4.90;99.90;;;-6.05;93.24;96102.41;10629049;27;2453;-80
2021/01/10 04:00:51;;;;;;;;;;;-4.90;99.90;;;-6.17;91.92;96094.09;10617414;27;2448;-82
2021/01/10 04:05:53;;;;;;;;;;;-5.00;99.90;;;-6.14;91.98;96096.38;10617945;27;2536;-82
2021/01/10 04:10:54;;;;;;;;;;;-5.00;99.90;;;-6.12;91.89;96099.63;10617266;27;2413;-81
2021/01/10 04:15:57;;;;;;;;;;;-5.00;99.90;;;-6.13;92.38;96098.00;10615254;27;2413;-83
2021/01/10 04:20:59;;;;;;;;;;;-4.90;99.90;;;-6.06;93.03;96100.78;10629822;27;2504;-81
2021/01/10 04:26:03;;;;;;;;;;;-4.20;99.90;;;-6.12;93.19;96097.03;10615714;27;2337;-82
2021/01/10 04:31:05;;;;;;;;;;;-4.90;99.90;;;-6.12;93.38;96097.03;10620802;27;2527;-81
2021/01/10 04:36:07;;;;;;;;;;;-5.00;99.90;;;-6.02;93.29;96092.47;10628493;27;2472;-83
2021/01/10 04:41:09;;;;;;;;;;;-5.00;99.90;;;-5.99;92.44;96097.34;10629775;27;1860;-82
2021/01/10 04:46:11;;;;;;;;;;;-4.90;99.90;;;-5.97;91.27;96099.00;10621135;27;2431;-82
2021/01/10 04:51:13;;;;;;;;;;;-4.60;99.90;;;-6.18;91.80;96102.91;10650549;27;2121;-79
2021/01/10 04:56:15;;;;;;;;;;;-5.00;99.90;;;-6.28;91.42;96097.00;10617514;27;2381;-82
2021/01/10 05:01:16;;;;;;;;;;;-5.10;99.90;;;-6.24;91.88;96093.06;10635234;27;2404;-80
2021/01/10 05:06:18;;;;;;;;;;;-5.10;99.90;;;-6.35;91.66;96103.88;10648351;27;1769;-81
2021/01/10 05:11:20;;;;;;;;;;;-5.10;99.90;;;-6.33;91.17;96110.56;10637125;28;1951;-81
2021/01/10 05:16:22;;;;;;;;;;;-5.10;99.90;;;-6.45;91.50;96106.63;10659394;27;2247;-82
2021/01/10 05:21:25;;;;;;;;;;;-4.50;99.90;;;-6.54;91.53;96108.41;10659636;27;2403;-81
2021/01/10 05:26:26;;;;;;;;;;;-4.10;99.90;;;-6.56;92.67;96114.75;10643752;27;2396;-81
2021/01/10 05:31:28;;;;;;;;;;;-5.40;99.90;;;-6.44;91.93;96112.66;10670562;27;2790;-81
2021/01/10 05:36:30;;;;;;;;;;;-3.50;99.90;;;-6.40;91.92;96109.56;10643600;27;2687;-81
2021/01/10 05:41:33;;;;;;;;;;;-5.30;99.90;;;-6.49;92.07;96112.31;10667801;27;2129;-82
2021/01/10 05:46:35;;;;;;;;;;;-5.30;99.90;;;-6.46;92.17;96112.84;10662723;27;2428;-82
2021/01/10 05:51:37;;;;;;;;;;;-4.20;99.90;;;-6.54;92.60;96123.28;10658280;27;1984;-81
2021/01/10 05:56:39;;;;;;;;;;;-4.20;99.90;;;-6.60;91.59;96121.31;10637267;27;2349;-80
2021/01/10 06:01:40;;;;;;;;;;;-5.50;99.90;;;-6.61;91.41;96112.63;10663079;27;1993;-81
2021/01/10 06:06:43;;;;;;;;;;;-5.50;99.90;;;-6.62;91.69;96116.22;10648532;27;2849;-82
2021/01/10 06:11:45;;;;;;;;;;;-5.50;99.90;;;-6.45;91.38;96122.31;10657921;27;2453;-82
2021/01/10 06:16:46;;;;;;;;;;;-5.40;99.90;;;-6.57;90.80;96119.16;10632018;27;2365;-82
2021/01/10 06:21:49;;;;;;;;;;;-5.40;99.90;;;-6.56;91.91;96123.41;10638910;27;2082;-83
2021/01/10 06:26:51;;;;;;;;;;;-5.40;99.90;;;-6.49;90.38;96126.22;10639184;27;2410;-83
2021/01/10 06:31:53;;;;;;;;;;;-5.30;99.90;;;-6.59;90.71;96121.13;10621066;27;2456;-84
2021/01/10 06:36:55;;;;;;;;;;;-5.40;99.90;;;-6.71;90.31;96117.16;10632132;27;2255;-82
2021/01/10 06:41:56;;;;;;;;;;;-5.50;99.90;;;-6.60;91.19;96132.56;10662471;27;2440;-81
2021/01/10 06:46:58;;;;;;;;;;;-5.50;99.90;;;-6.65;91.44;96139.25;10637497;27;2416;-83
2021/01/10 06:52:03;;;;;;;;;;;-5.40;99.90;;;-6.68;91.30;96155.25;10607826;27;2602;-83
2021/01/10 06:57:05;;;;;;;;;;;-5.00;99.90;;;-6.69;90.56;96154.44;10631907;27;2468;-82
2021/01/10 07:02:07;;;;;;;;;;;-5.50;99.90;;;-6.48;90.61;96161.88;10633117;27;2440;-82
2021/01/10 07:07:09;;;;;;;;;;;-5.50;99.90;;;-6.31;90.26;96163.53;10636964;27;2341;-81
2021/01/10 07:12:11;;;;;;;;;;;-5.30;99.90;;;-6.40;89.03;96166.31;10626723;27;2344;-80
2021/01/10 07:17:13;;;;;;;;;;;-5.20;99.90;;;-6.32;88.63;96168.94;10630052;27;2626;-83
2021/01/10 07:22:15;;;;;;;;;;;-5.20;99.90;;;-6.18;87.01;96168.31;10630820;27;2366;-82
2021/01/10 07:27:17;;;;;;;;;;;-4.10;99.90;;;-5.96;87.73;96169.53;10643337;27;2400;-81
2021/01/10 07:32:21;;;;;;;;;;;-4.90;99.90;;;-5.80;86.94;96163.44;10625822;27;2444;-81
2021/01/10 07:37:23;;;;;;;;;;;-4.80;99.90;;;-5.74;86.12;96150.50;10646166;27;2396;-81
2021/01/10 07:42:25;;;;;;;;;;;-4.70;99.90;;;-5.48;87.26;96147.72;10637145;27;2440;-82
2021/01/10 07:47:27;;;;;;;;;;;-4.50;99.90;;;-5.17;86.04;96155.72;10605559;27;2557;-81
2021/01/10 07:52:29;;;;;;;;;;;-4.30;99.90;;;-5.07;85.16;96159.97;10598294;27;2354;-81
2021/01/10 07:57:32;;;;;;;;;;;-4.00;99.90;;;-5.03;85.44;96162.06;10605828;27;2536;-82
2021/01/10 08:02:34;;;;;;;;;;;-4.00;99.90;;;-5.08;86.53;96163.59;10614052;27;2317;-79
2021/01/10 08:07:36;;;;;;;;;;;-3.10;99.90;;;-5.11;86.45;96177.00;10613262;27;2416;-81
2021/01/10 08:12:39;;;;;;;;;;;-4.00;99.90;;;-4.85;84.97;96174.16;10607689;27;2237;-80
2021/01/10 08:17:41;;;;;;;;;;;-3.90;99.90;;;-4.84;85.51;96186.28;10614595;27;2343;-81
2021/01/10 08:22:43;;;;;;;;;;;-3.80;99.90;;;-4.75;84.93;96185.31;10627205;27;1889;-83
2021/01/10 08:27:45;;;;;;;;;;;-2.40;99.90;;;-4.61;84.27;96176.72;10608434;27;2412;-80
2021/01/10 08:32:47;;;;;;;;;;;-2.40;99.90;;;-4.55;83.51;96183.91;10634224;27;2372;-83
2021/01/10 08:37:51;;;;;;;;;;;-3.50;99.90;;;-4.59;84.56;96179.19;10610925;27;2332;-82
2021/01/10 08:42:52;;;;;;;;;;;-3.60;99.90;;;-4.58;83.16;96184.28;10610264;27;2321;-83
2021/01/10 08:47:54;;;;;;;;;;;-2.80;99.90;;;-4.50;83.36;96188.66;10610721;27;2326;-81
2021/01/10 08:52:56;;;;;;;;;;;-3.40;99.90;;;-4.44;83.70;96188.81;10611820;27;2397;-83
2021/01/10 08:57:58;;;;;;;;;;;-3.40;99.90;;;-4.16;82.35;96185.72;10620779;27;1670;-82
2021/01/10 09:03:00;;;;;;;;;;;-3.20;99.90;;;-4.24;82.04;96176.09;10627637;27;2320;-81
2021/01/10 09:08:03;;;;;;;;;;;-3.30;99.90;;;-4.54;83.85;96177.69;10629106;27;2325;-82
2021/01/10 09:13:05;;;;;;;;;;;-2.60;99.90;;;-4.46;84.26;96185.50;10627940;27;2014;-80
2021/01/10 09:18:07;;;;;;;;;;;-3.00;99.90;;;-4.06;82.90;96183.72;10638464;27;1361;-80
2021/01/10 09:23:11;;;;;;;;;;;-3.20;99.90;;;-4.08;83.48;96196.16;10629180;27;1615;-80
2021/01/10 09:28:13;;;;;;;;;;;-2.60;99.90;;;-4.14;84.03;96192.41;10634717;28;1393;-79
2021/01/10 09:33:15;;;;;;;;;;;-3.20;99.90;;;-4.06;83.67;96190.78;10646755;27;1978;-81
2021/01/10 09:38:21;;;;;;;;;;;-1.70;99.90;;;-4.20;83.87;96195.75;10631040;28;1294;-78
2021/01/10 09:43:24;;;;;;;;;;;-3.20;99.90;;;-4.16;84.96;96180.47;10605655;28;1651;-78
2021/01/10 09:48:27;;;;;;;;;;;-1.90;99.90;;;-3.79;82.95;96197.34;10615201;28;2105;-80
2021/01/10 09:53:29;;;;;;;;;;;-2.90;99.90;;;-3.67;82.57;96177.56;10609758;28;1996;-80
2021/01/10 09:58:31;;;;;;;;;;;-1.60;99.90;;;-3.77;83.36;96184.84;10610710;28;1634;-79
2021/01/10 10:03:33;;;;;;;;;;;-1.30;99.90;;;-3.51;83.20;96177.44;10631901;28;1281;-79
2021/01/10 10:08:35;;;;;;;;;;;-2.70;99.90;;;-3.25;80.90;96184.94;10615068;27;1540;-80
2021/01/10 10:13:37;;;;;;;;;;;-1.10;99.90;;;-3.64;82.22;96177.19;10644039;27;1529;-81
2021/01/10 10:18:39;;;;;;;;;;;-2.50;99.90;;;-3.69;82.90;96174.28;10625859;27;1410;-79
2021/01/10 10:23:41;;;;;;;;;;;-2.70;99.90;;;-3.63;81.59;96170.94;10641745;27;2412;-77
2021/01/10 10:28:43;;;;;;;;;;;-1.30;99.90;;;-3.85;83.17;96170.78;10656830;27;2337;-81
2021/01/10 10:33:45;;;;;;;;;;;-2.40;99.90;;;-3.69;83.27;96155.88;10632433;27;2265;-80
2021/01/10 10:38:47;;;;;;;;;;;-2.50;99.90;;;-3.55;82.59;96147.25;10640932;27;2205;-80
2021/01/10 10:43:49;;;;;;;;;;;-2.70;99.90;;;-3.30;81.52;96145.25;10656986;27;2255;-80
2021/01/10 10:48:53;;;;;;;;;;;-2.40;99.90;;;-3.08;79.90;96138.28;10625874;27;2425;-79
2021/01/10 10:53:55;;;;;;;;;;;-2.20;99.90;;;-3.20;81.23;96129.19;10638153;27;2519;-79
2021/01/10 10:58:57;;;;;;;;;;;-2.30;99.90;;;-2.89;80.54;96139.56;10643028;27;2253;-81
2021/01/10 11:03:59;;;;;;;;;;;-0.60;99.90;;;-3.03;80.15;96133.31;10629375;27;2411;-80
2021/01/10 11:09:04;;;;;;;;;;;-0.20;99.90;;;-2.67;79.42;96116.78;10642137;27;2340;-81
2021/01/10 11:14:06;;;;;;;;;;;-1.00;99.90;;;-2.74;79.23;96112.25;10646900;27;2321;-81
2021/01/10 11:19:08;;;;;;;;;;;-1.70;99.90;;;-2.51;79.09;96100.81;10656685;27;2210;-82
2021/01/10 11:24:10;;;;;;;;;;;-1.80;99.90;;;-1.99;77.07;96087.41;10631436;27;2388;-82
2021/01/10 11:29:14;;;;;;;;;;;-0.30;99.90;;;-2.33;78.01;96084.63;10632895;27;2230;-82
2021/01/10 11:34:19;;;;;;;;;;;-1.00;99.90;;;-1.99;77.29;96081.31;10647944;27;2270;-82
2021/01/10 11:39:21;;;;;;;;;;;-1.10;99.90;;;-2.80;79.73;96073.53;10624065;27;2310;-80
2021/01/10 11:44:23;;;;;;;;;;;-1.60;99.90;;;-3.18;81.53;96079.88;10633557;27;2231;-81
2021/01/10 11:49:28;;;;;;;;;;;-1.50;99.90;;;-3.27;82.34;96079.94;10642265;27;2412;-80
2021/01/10 11:54:30;;;;;;;;;;;-2.10;99.90;;;-3.08;81.92;96077.78;10633980;27;2266;-80
2021/01/10 11:59:37;;;;;;;;;;;-0.90;99.90;;;-2.99;81.84;96071.44;10636072;27;2226;-79
2021/01/10 12:04:42;;;;;;;;;;;-1.60;99.90;;;-2.85;81.02;96064.56;10616178;27;2345;-80
2021/01/10 12:09:44;;;;;;;;;;;-2.00;99.90;;;-3.40;82.96;96060.53;10627187;27;2258;-81
2021/01/10 12:14:52;;;;;;;;;;;-0.70;99.90;;;-2.92;82.45;96051.31;10628765;27;2355;-79
2021/01/10 12:25:10;;;;;;;;;;;-1.90;99.90;;;-2.95;82.64;96049.03;10612953;27;2157;-80
2021/01/10 12:30:12;;;;;;;;;;;-1.00;99.90;;;-2.91;82.69;96045.06;10612157;27;2327;-82
2021/01/10 12:35:15;;;;;;;;;;;-1.90;99.90;;;-2.74;82.03;96035.94;10620049;27;2289;-83
2021/01/10 12:40:17;;;;;;;;;;;-1.80;99.90;;;-3.30;83.79;96034.81;10639866;27;2356;-82
2021/01/10 12:45:19;;;;;;;;;;;-0.90;99.90;;;-2.95;83.30;96041.16;10622509;27;2321;-81
2021/01/10 12:50:20;;;;;;;;;;;-2.10;99.90;;;-2.72;81.84;96038.41;10629768;27;2172;-79
2021/01/10 12:55:22;;;;;;;;;;;-1.80;99.90;;;-2.51;81.64;96022.66;10626510;27;2290;-83
2021/01/10 13:00:25;;;;;;;;;;;-1.60;99.90;;;-2.50;81.54;96021.66;10607910;27;2325;-82
2021/01/10 13:05:27;;;;;;;;;;;-1.40;99.90;;;-2.57;80.92;96017.31;10611656;27;2202;-82
2021/01/10 13:10:31;;;;;;;;;;;-0.20;99.90;;;-2.90;82.42;96020.38;10632436;27;2324;-82
2021/01/10 13:15:32;;;;;;;;;;;-0.50;99.90;;;-2.72;81.43;96018.16;10618385;27;2201;-84
2021/01/10 13:20:34;;;;;;;;;;;-1.70;99.90;;;-2.88;82.21;96023.63;10609074;27;2269;-81
2021/01/10 13:25:36;;;;;;;;;;;-1.60;99.90;;;-3.03;83.07;96020.22;10627308;27;2262;-82
2021/01/10 13:30:38;;;;;;;;;;;-0.50;99.90;;;-3.14;83.42;96018.03;10611151;27;2305;-83
2021/01/10 13:35:40;;;;;;;;;;;-1.00;99.90;;;-3.36;83.45;96014.50;10608242;27;2337;-82
2021/01/10 13:40:41;;;;;;;;;;;-2.10;99.90;;;-3.37;84.02;96023.38;10626172;27;1872;-82
2021/01/10 13:45:44;;;;;;;;;;;-1.00;99.90;;;-3.57;84.39;96010.75;10633059;27;2349;-80
2021/01/10 13:50:46;;;;;;;;;;;-2.30;99.90;;;-3.74;85.95;96019.81;10635668;27;2135;-83
2021/01/10 13:55:48;;;;;;;;;;;-2.50;99.90;;;-3.65;85.92;96026.63;10624928;27;2165;-82
2021/01/10 14:00:54;;;;;;;;;;;-2.60;99.90;;;-3.54;85.28;96034.06;10632889;27;1734;-82
2021/01/10 14:05:57;;;;;;;;;;;-1.20;99.90;;;-3.54;85.29;96030.63;10616439;27;2196;-82
2021/01/10 14:11:01;;;;;;;;;;;-1.40;99.90;;;-3.61;85.11;96032.34;10634701;27;2285;-79
2021/01/10 14:16:05;;;;;;;;;;;-2.50;99.90;;;-3.93;85.60;96039.53;10621426;27;2500;-81
2021/01/10 14:21:08;;;;;;;;;;;-1.40;99.90;;;-4.03;86.46;96038.94;10619691;27;2396;-82
2021/01/10 14:26:10;;;;;;;;;;;-2.40;99.90;;;-3.69;85.87;96041.13;10605239;27;2320;-82
2021/01/10 14:31:12;;;;;;;;;;;-1.90;99.90;;;-3.49;84.74;96045.88;10644387;27;2313;-82
2021/01/10 14:36:14;;;;;;;;;;;-1.80;99.90;;;-3.63;84.44;96044.81;10637397;27;2345;-81
2021/01/10 14:41:16;;;;;;;;;;;-2.10;99.90;;;-3.83;84.67;96050.56;10649106;27;2409;-80
2021/01/10 14:46:18;;;;;;;;;;;-1.40;99.90;;;-4.05;86.25;96048.00;10631356;27;2253;-80
2021/01/10 14:51:20;;;;;;;;;;;-2.90;99.90;;;-4.16;86.35;96049.22;10616323;27;2281;-81
2021/01/10 14:56:27;;;;;;;;;;;-1.40;99.90;;;-4.00;87.01;96064.84;10645516;27;2265;-82
2021/01/10 15:01:30;;;;;;;;;;;-2.70;99.90;;;-4.16;86.65;96059.72;10646975;27;2357;-80
2021/01/10 15:06:33;;;;;;;;;;;-3.00;99.90;;;-4.30;87.68;96070.97;10627563;27;2746;-83
2021/01/10 15:11:35;;;;;;;;;;;-2.20;99.90;;;-4.30;87.84;96069.16;10649829;27;1891;-82
2021/01/10 15:16:37;;;;;;;;;;;-3.20;99.90;;;-4.39;88.33;96075.44;10658478;27;1504;-81
2021/01/10 15:21:40;;;;;;;;;;;-3.30;99.90;;;-4.47;88.54;96072.88;10639174;27;1569;-80
2021/01/10 15:26:45;;;;;;;;;;;-2.00;99.90;;;-4.43;88.89;96079.41;10650942;27;1612;-78
2021/01/10 15:31:48;;;;;;;;;;;-2.70;99.90;;;-4.59;89.07;96080.28;10654035;27;1951;-80
2021/01/10 15:36:51;;;;;;;;;;;-2.50;99.90;;;-4.65;89.07;96084.41;10649196;27;1554;-80
2021/01/10 15:42:10;;;;;;;;;;;-3.30;99.90;;;-4.76;89.65;96084.00;10621979;27;1719;-80
2021/01/10 15:47:15;;;;;;;;;;;-2.50;99.90;;;-4.80;90.04;96080.09;10638790;27;1409;-83
2021/01/10 15:52:20;;;;;;;;;;;-2.40;99.90;;;-4.92;90.79;96082.25;10636835;27;1914;-80
2021/01/10 15:57:28;;;;;;;;;;;-3.80;99.90;;;-4.98;90.58;96094.22;10645296;27;1564;-79
2021/01/10 16:02:31;;;;;;;;;;;-3.80;99.90;;;-4.99;90.93;96094.41;10639345;27;1089;-79
2021/01/10 16:07:34;;;;;;;;;;;-3.90;99.90;;;-5.03;91.34;96093.09;10618083;27;1530;-79
2021/01/10 16:12:39;;;;;;;;;;;-3.60;99.90;;;-5.10;91.48;96095.59;10630938;27;1955;-82
2021/01/10 16:17:42;;;;;;;;;;;-4.00;99.90;;;-5.06;92.65;96096.06;10617357;27;1290;-79
2021/01/10 16:22:53;;;;;;;;;;;-3.80;99.90;;;-5.07;91.88;96100.50;10605354;27;1320;-80
2021/01/10 16:27:56;;;;;;;;;;;-3.70;99.90;;;-4.86;92.39;96093.88;10605438;27;1374;-79
2021/01/10 16:33:08;;;;;;;;;;;-4.00;99.90;;;-4.97;92.55;96095.06;10617553;27;1890;-78
2021/01/10 16:38:10;;;;;;;;;;;-2.50;99.90;;;-4.95;92.54;96091.28;10605137;27;1613;-78
2021/01/10 16:43:20;;;;;;;;;;;-3.10;99.90;;;-4.90;93.47;96096.84;10630065;27;1703;-77
2021/01/10 16:48:22;;;;;;;;;;;-4.00;99.90;;;-4.85;92.79;96096.31;10620425;27;1654;-78
2021/01/10 16:53:31;;;;;;;;;;;-3.90;99.90;;;-5.02;93.52;96111.31;10623109;27;1909;-78
2021/01/10 16:58:38;;;;;;;;;;;-3.10;99.90;;;-4.78;92.67;96117.44;10648072;27;1289;-78
2021/01/10 17:03:49;;;;;;;;;;;-3.70;99.90;;;-4.61;92.40;96103.28;10632197;28;1384;-78
2021/01/10 17:08:52;;;;;;;;;;;-3.80;99.90;;;-4.67;92.31;96112.63;10630003;27;1613;-79
2021/01/10 17:13:54;;;;;;;;;;;-3.70;99.90;;;-4.81;92.79;96112.53;10619152;28;1921;-80
2021/01/10 17:18:56;;;;;;;;;;;-1.50;99.90;;;-4.61;92.48;96113.75;10640225;27;1366;-81
2021/01/10 17:23:59;;;;;;;;;;;-2.60;99.90;;;-4.43;92.66;96106.47;10622993;27;1100;-80
2021/01/10 17:29:04;;;;;;;;;;;-3.50;99.90;;;-4.52;92.25;96102.22;10624819;27;1390;-80
2021/01/10 17:34:07;;;;;;;;;;;-1.80;99.90;;;-4.51;92.70;96114.38;10612050;27;1966;-79
2021/01/10 17:39:10;;;;;;;;;;;-3.50;99.90;;;-4.66;92.70;96113.44;10642228;27;1366;-80
2021/01/10 17:44:15;;;;;;;;;;;-3.50;99.90;;;-4.79;92.60;96105.31;10633716;27;1510;-79
2021/01/10 17:49:19;;;;;;;;;;;-3.30;99.90;;;-4.88;93.36;96119.47;10644967;27;1913;-79
2021/01/10 17:54:23;;;;;;;;;;;-3.20;99.90;;;-4.97;93.02;96121.25;10647526;27;1354;-79
2021/01/10 17:59:26;;;;;;;;;;;-3.60;99.90;;;-4.82;93.67;96111.72;10644557;27;1362;-82
2021/01/10 18:04:29;;;;;;;;;;;-2.30;99.90;;;-4.99;93.28;96116.19;10627427;27;1285;-81
2021/01/10 18:09:31;;;;;;;;;;;-4.00;99.90;;;-4.94;93.65;96113.91;10612259;27;1956;-81
2021/01/10 18:14:33;;;;;;;;;;;-3.70;99.90;;;-4.98;93.98;96125.69;10664612;27;1213;-77
2021/01/10 18:19:35;;;;;;;;;;;-2.60;99.90;;;-4.95;94.76;96128.00;10650640;27;1560;-81
2021/01/10 18:24:38;;;;;;;;;;;-3.90;99.90;;;-4.85;94.44;96126.97;10650209;27;1568;-79
2021/01/10 18:29:40;;;;;;;;;;;-3.80;99.90;;;-4.84;94.00;96142.53;10642524;27;1933;-80
2021/01/10 18:34:42;;;;;;;;;;;-2.40;99.90;;;-5.00;93.95;96140.78;10636329;27;1385;-80
2021/01/10 18:39:45;;;;;;;;;;;-3.40;99.90;;;-5.06;94.27;96136.22;10649084;27;1347;-79
2021/01/10 18:44:48;;;;;;;;;;;-4.00;99.90;;;-5.20;94.06;96139.53;10624674;27;1580;-80
2021/01/10 18:49:55;;;;;;;;;;;-4.20;99.90;;;-5.32;95.38;96146.09;10620411;27;1904;-79
2021/01/10 18:54:58;;;;;;;;;;;-4.20;99.90;;;-5.37;94.91;96151.81;10629544;27;2060;-81
2021/01/10 19:00:07;;;;;;;;;;;-3.80;99.90;;;-5.33;94.94;96145.28;10632957;27;1879;-80
2021/01/10 19:05:16;;;;;;;;;;;-3.00;99.90;;;-5.34;95.06;96143.66;10630031;27;2048;-80
2021/01/10 19:10:27;;;;;;;;;;;-4.40;99.90;;;-5.24;94.66;96139.03;10634186;27;1965;-79
2021/01/10 19:15:30;;;;;;;;;;;-3.40;99.90;;;-5.09;94.33;96149.66;10641470;27;1540;-79
2021/01/10 19:20:45;;;;;;;;;;;-4.10;99.90;;;-5.06;94.88;96138.84;10624345;27;1636;-80
2021/01/10 19:25:48;;;;;;;;;;;-2.80;99.90;;;-5.08;94.21;96138.19;10629435;27;2031;-80
2021/01/10 19:30:55;;;;;;;;;;;-2.80;99.90;;;-5.31;94.36;96147.72;10621720;27;2107;-78
2021/01/10 19:36:01;;;;;;;;;;;-4.10;99.90;;;-5.28;94.69;96145.59;10631745;27;1936;-79
2021/01/10 19:41:08;;;;;;;;;;;-4.30;99.90;;;-5.41;94.96;96147.88;10640896;27;2139;-82
2021/01/10 19:46:10;;;;;;;;;;;-4.40;99.90;;;-5.24;94.85;96153.94;10628395;27;1369;-81
2021/01/10 19:51:16;;;;;;;;;;;-3.50;99.90;;;-5.17;93.68;96154.91;10632672;27;1886;-81
2021/01/10 19:56:17;;;;;;;;;;;-4.30;99.90;;;-5.09;93.40;96149.66;10643015;27;1848;-81
2021/01/10 20:01:19;;;;;;;;;;;-2.60;99.90;;;-5.22;93.17;96157.19;10613745;27;2084;-82
2021/01/10 20:06:21;;;;;;;;;;;-4.10;99.90;;;-5.32;92.43;96161.81;10631823;27;1670;-81
2021/01/10 20:11:24;;;;;;;;;;;-4.10;99.90;;;-5.34;93.57;96164.59;10632569;27;1965;-82
2021/01/10 20:16:25;;;;;;;;;;;-4.20;99.90;;;-5.25;93.38;96162.78;10632101;27;1940;-80
2021/01/10 20:21:38;;;;;;;;;;;-4.30;99.90;;;-5.22;92.28;96165.06;10609714;27;1901;-81
2021/01/10 20:26:46;;;;;;;;;;;-4.20;99.90;;;-5.56;92.04;96170.50;10627692;27;2020;-82
2021/01/10 20:31:48;;;;;;;;;;;-4.30;99.90;;;-5.58;93.68;96164.63;10604202;27;1958;-81
2021/01/10 20:36:51;;;;;;;;;;;-3.50;99.90;;;-5.52;93.22;96156.91;10639769;27;1967;-80
2021/01/10 20:41:53;;;;;;;;;;;-4.40;99.90;;;-5.44;93.14;96154.28;10620817;27;1600;-80
2021/01/10 20:46:55;;;;;;;;;;;-4.40;99.90;;;-5.48;92.16;96158.22;10620029;27;2035;-80
2021/01/10 20:51:59;;;;;;;;;;;-3.50;99.90;;;-5.41;91.62;96157.53;10623650;27;1981;-79
2021/01/10 20:57:04;;;;;;;;;;;-4.30;99.90;;;-5.35;91.46;96157.72;10623118;27;1940;-80
2021/01/10 21:02:12;;;;;;;;;;;-4.20;99.90;;;-5.26;91.37;96161.97;10601237;27;2099;-79
2021/01/10 21:07:14;;;;;;;;;;;-4.10;99.90;;;-5.25;91.00;96163.59;10606187;27;2260;-78
2021/01/10 21:12:16;;;;;;;;;;;-4.10;99.90;;;-5.40;90.90;96161.84;10635582;27;2212;-81
2021/01/10 21:17:20;;;;;;;;;;;-4.30;99.90;;;-5.39;90.90;96160.84;10655705;27;1792;-80
2021/01/10 21:22:24;;;;;;;;;;;-4.20;99.90;;;-5.29;91.11;96158.84;10617633;27;2132;-79
2021/01/10 21:27:28;;;;;;;;;;;-4.20;99.90;;;-5.38;90.86;96154.63;10614596;27;2106;-80
2021/01/10 21:32:30;;;;;;;;;;;-4.20;99.90;;;-5.53;90.25;96157.91;10626681;27;2375;-78
2021/01/10 21:37:32;;;;;;;;;;;-4.30;99.90;;;-5.71;91.21;96162.47;10603514;27;1976;-79
2021/01/10 21:42:37;;;;;;;;;;;-4.40;99.90;;;-5.77;91.07;96163.94;10613638;27;1546;-80
2021/01/10 21:47:38;;;;;;;;;;;-4.50;99.90;;;-5.88;91.11;96161.63;10622285;27;1812;-79
2021/01/10 21:52:40;;;;;;;;;;;-4.60;99.90;;;-5.98;91.75;96166.22;10609576;27;1929;-81
2021/01/10 21:57:42;;;;;;;;;;;-4.70;99.90;;;-5.94;91.27;96161.50;10636734;27;1494;-81
2021/01/10 22:02:44;;;;;;;;;;;-4.80;99.90;;;-6.10;91.19;96167.53;10608476;28;2013;-80
2021/01/10 22:07:46;;;;;;;;;;;-4.90;99.90;;;-6.12;91.66;96162.44;10611253;27;1955;-80
2021/01/10 22:12:49;;;;;;;;;;;-4.90;99.90;;;-6.15;92.51;96159.34;10613430;27;2085;-78
2021/01/10 22:17:52;;;;;;;;;;;-4.50;99.90;;;-6.04;92.65;96162.47;10631676;27;1899;-80
2021/01/10 22:22:54;;;;;;;;;;;-4.80;99.90;;;-5.94;92.45;96166.75;10633318;27;2055;-81
2021/01/10 22:27:56;;;;;;;;;;;-3.00;99.90;;;-6.11;92.12;96171.94;10615300;27;1672;-81
2021/01/10 22:32:58;;;;;;;;;;;-4.90;99.90;;;-6.10;92.44;96163.13;10634042;27;1979;-80
2021/01/10 22:38:00;;;;;;;;;;;-4.80;99.90;;;-6.10;91.79;96160.50;10628021;27;1960;-79
2021/01/10 22:43:06;;;;;;;;;;;-4.80;99.90;;;-6.13;91.75;96154.75;10627561;27;1903;-79
2021/01/10 22:48:08;;;;;;;;;;;-4.90;99.90;;;-6.14;91.75;96155.75;10610549;27;1978;-82
2021/01/10 22:53:10;;;;;;;;;;;-4.90;99.90;;;-6.09;91.86;96156.09;10635557;27;2078;-81
2021/01/10 22:58:12;;;;;;;;;;;-5.00;99.90;;;-6.05;92.50;96155.59;10616867;27;1909;-81
2021/01/10 23:03:14;;;;;;;;;;;-4.90;99.90;;;-6.16;92.67;96137.59;10659874;27;1906;-83
2021/01/10 23:08:15;;;;;;;;;;;-5.10;99.90;;;-6.14;92.58;96147.91;10630512;27;1983;-80
2021/01/10 23:13:17;;;;;;;;;;;-5.10;99.90;;;-6.15;93.03;96144.47;10625507;27;2016;-80
2021/01/10 23:18:19;;;;;;;;;;;-4.80;99.90;;;-6.14;92.93;96140.88;10627566;27;1951;-81